sensor_id;sensor_type;location;lat;lon;timestamp;pressure;altitude;pressure_sealevel;temperature
70533;BMP180;58088;51.186;17.130;2024-02-14T00:00:11;100781.80;;;3.20
70533;BMP180;58088;51.186;17.130;2024-02-14T00:02:44;100783.20;;;3.20
70533;BMP180;58088;51.186;17.130;2024-02-14T00:05:11;100779.20;;;3.20
70533;BMP180;58088;51.186;17.130;2024-02-14T00:07:38;100774.40;;;3.20
70533;BMP180;58088;51.186;17.130;2024-02-14T00:10:06;100774.40;;;3.20
70533;BMP180;58088;51.186;17.130;2024-02-14T00:12:33;100775.60;;;3.20
70533;BMP180;58088;51.186;17.130;2024-02-14T00:14:59;100782.40;;;3.20
70533;BMP180;58088;51.186;17.130;2024-02-14T00:17:25;100787.20;;;3.20
70533;BMP180;58088;51.186;17.130;2024-02-14T00:19:52;100784.40;;;3.20
70533;BMP180;58088;51.186;17.130;2024-02-14T00:22:18;100789.00;;;3.20
70533;BMP180;58088;51.186;17.130;2024-02-14T00:24:44;100791.60;;;3.20
70533;BMP180;58088;51.186;17.130;2024-02-14T00:27:10;100791.60;;;3.30
70533;BMP180;58088;51.186;17.130;2024-02-14T00:29:36;100788.60;;;3.30
70533;BMP180;58088;51.186;17.130;2024-02-14T00:32:03;100787.20;;;3.28
70533;BMP180;58088;51.186;17.130;2024-02-14T00:34:29;100793.20;;;3.20
70533;BMP180;58088;51.186;17.130;2024-02-14T00:36:55;100795.20;;;3.26
70533;BMP180;58088;51.186;17.130;2024-02-14T00:39:21;100792.60;;;3.30
70533;BMP180;58088;51.186;17.130;2024-02-14T00:41:47;100799.00;;;3.30
70533;BMP180;58088;51.186;17.130;2024-02-14T00:44:14;100799.20;;;3.30
70533;BMP180;58088;51.186;17.130;2024-02-14T00:46:44;100795.80;;;3.40
70533;BMP180;58088;51.186;17.130;2024-02-14T00:49:11;100789.80;;;3.40
70533;BMP180;58088;51.186;17.130;2024-02-14T00:51:37;100793.40;;;3.40
70533;BMP180;58088;51.186;17.130;2024-02-14T00:54:04;100795.60;;;3.40
70533;BMP180;58088;51.186;17.130;2024-02-14T00:56:30;100799.80;;;3.40
70533;BMP180;58088;51.186;17.130;2024-02-14T00:58:59;100797.60;;;3.40
70533;BMP180;58088;51.186;17.130;2024-02-14T01:01:25;100798.40;;;3.40
70533;BMP180;58088;51.186;17.130;2024-02-14T01:03:52;100795.80;;;3.40
70533;BMP180;58088;51.186;17.130;2024-02-14T01:06:18;100799.00;;;3.40
70533;BMP180;58088;51.186;17.130;2024-02-14T01:08:46;100791.20;;;3.40
70533;BMP180;58088;51.186;17.130;2024-02-14T01:11:13;100790.20;;;3.40
70533;BMP180;58088;51.186;17.130;2024-02-14T01:13:39;100794.20;;;3.44
70533;BMP180;58088;51.186;17.130;2024-02-14T01:16:07;100793.60;;;3.50
70533;BMP180;58088;51.186;17.130;2024-02-14T01:18:33;100791.00;;;3.48
70533;BMP180;58088;51.186;17.130;2024-02-14T01:21:00;100793.00;;;3.50
70533;BMP180;58088;51.186;17.130;2024-02-14T01:23:28;100784.20;;;3.50
70533;BMP180;58088;51.186;17.130;2024-02-14T01:26:01;100792.40;;;3.50
70533;BMP180;58088;51.186;17.130;2024-02-14T01:28:28;100780.80;;;3.50
70533;BMP180;58088;51.186;17.130;2024-02-14T01:30:54;100787.00;;;3.50
70533;BMP180;58088;51.186;17.130;2024-02-14T01:33:22;100787.80;;;3.50
70533;BMP180;58088;51.186;17.130;2024-02-14T01:35:54;100790.60;;;3.60
70533;BMP180;58088;51.186;17.130;2024-02-14T01:38:24;100788.20;;;3.60
70533;BMP180;58088;51.186;17.130;2024-02-14T01:40:50;100790.80;;;3.52
70533;BMP180;58088;51.186;17.130;2024-02-14T01:43:17;100788.40;;;3.56
70533;BMP180;58088;51.186;17.130;2024-02-14T01:45:43;100786.40;;;3.58
70533;BMP180;58088;51.186;17.130;2024-02-14T01:48:09;100788.80;;;3.60
70533;BMP180;58088;51.186;17.130;2024-02-14T01:50:42;100792.20;;;3.60
70533;BMP180;58088;51.186;17.130;2024-02-14T01:53:11;100793.60;;;3.60
70533;BMP180;58088;51.186;17.130;2024-02-14T01:56:04;100785.40;;;3.60
70533;BMP180;58088;51.186;17.130;2024-02-14T01:58:41;100787.60;;;3.52
70533;BMP180;58088;51.186;17.130;2024-02-14T02:01:11;100795.00;;;3.50
70533;BMP180;58088;51.186;17.130;2024-02-14T02:03:38;100789.60;;;3.50
70533;BMP180;58088;51.186;17.130;2024-02-14T02:06:06;100791.60;;;3.48
70533;BMP180;58088;51.186;17.130;2024-02-14T02:08:47;100787.80;;;3.50
70533;BMP180;58088;51.186;17.130;2024-02-14T02:11:17;100787.20;;;3.50
70533;BMP180;58088;51.186;17.130;2024-02-14T02:14:03;100785.80;;;3.50
70533;BMP180;58088;51.186;17.130;2024-02-14T02:16:30;100788.20;;;3.50
70533;BMP180;58088;51.186;17.130;2024-02-14T02:18:57;100784.20;;;3.50
70533;BMP180;58088;51.186;17.130;2024-02-14T02:21:26;100780.60;;;3.50
70533;BMP180;58088;51.186;17.130;2024-02-14T02:24:00;100782.60;;;3.40
70533;BMP180;58088;51.186;17.130;2024-02-14T02:26:27;100779.40;;;3.40
70533;BMP180;58088;51.186;17.130;2024-02-14T02:28:54;100769.80;;;3.40
70533;BMP180;58088;51.186;17.130;2024-02-14T02:31:20;100772.60;;;3.40
70533;BMP180;58088;51.186;17.130;2024-02-14T02:33:47;100776.20;;;3.38
70533;BMP180;58088;51.186;17.130;2024-02-14T02:36:14;100774.60;;;3.30
70533;BMP180;58088;51.186;17.130;2024-02-14T02:38:46;100776.00;;;3.28
70533;BMP180;58088;51.186;17.130;2024-02-14T02:41:12;100779.60;;;3.20
70533;BMP180;58088;51.186;17.130;2024-02-14T02:43:42;100782.20;;;3.20
70533;BMP180;58088;51.186;17.130;2024-02-14T02:46:11;100781.80;;;3.20
70533;BMP180;58088;51.186;17.130;2024-02-14T02:48:44;100782.20;;;3.20
70533;BMP180;58088;51.186;17.130;2024-02-14T02:51:11;100783.40;;;3.12
70533;BMP180;58088;51.186;17.130;2024-02-14T02:53:40;100774.60;;;3.10
70533;BMP180;58088;51.186;17.130;2024-02-14T02:56:36;100779.00;;;3.10
70533;BMP180;58088;51.186;17.130;2024-02-14T02:59:18;100778.20;;;3.08
70533;BMP180;58088;51.186;17.130;2024-02-14T03:02:06;100791.40;;;3.00
70533;BMP180;58088;51.186;17.130;2024-02-14T03:04:50;100784.80;;;3.00
70533;BMP180;58088;51.186;17.130;2024-02-14T03:07:16;100787.20;;;2.96
70533;BMP180;58088;51.186;17.130;2024-02-14T03:09:45;100781.40;;;2.90
70533;BMP180;58088;51.186;17.130;2024-02-14T03:12:11;100776.80;;;2.80
70533;BMP180;58088;51.186;17.130;2024-02-14T03:14:45;100770.00;;;2.80
70533;BMP180;58088;51.186;17.130;2024-02-14T03:17:13;100766.80;;;2.80
70533;BMP180;58088;51.186;17.130;2024-02-14T03:19:42;100771.20;;;2.80
70533;BMP180;58088;51.186;17.130;2024-02-14T03:22:08;100778.40;;;2.72
70533;BMP180;58088;51.186;17.130;2024-02-14T03:24:37;100777.40;;;2.70
70533;BMP180;58088;51.186;17.130;2024-02-14T03:27:04;100775.60;;;2.70
70533;BMP180;58088;51.186;17.130;2024-02-14T03:29:33;100778.00;;;2.70
70533;BMP180;58088;51.186;17.130;2024-02-14T03:32:01;100779.80;;;2.64
70533;BMP180;58088;51.186;17.130;2024-02-14T03:34:32;100787.40;;;2.62
70533;BMP180;58088;51.186;17.130;2024-02-14T03:37:10;100778.80;;;2.60
70533;BMP180;58088;51.186;17.130;2024-02-14T03:39:41;100777.00;;;2.60
70533;BMP180;58088;51.186;17.130;2024-02-14T03:42:08;100774.60;;;2.56
70533;BMP180;58088;51.186;17.130;2024-02-14T03:44:34;100776.20;;;2.50
70533;BMP180;58088;51.186;17.130;2024-02-14T03:47:00;100780.00;;;2.50
70533;BMP180;58088;51.186;17.130;2024-02-14T03:49:29;100788.60;;;2.50
70533;BMP180;58088;51.186;17.130;2024-02-14T03:51:56;100794.00;;;2.56
70533;BMP180;58088;51.186;17.130;2024-02-14T03:54:25;100796.60;;;2.58
70533;BMP180;58088;51.186;17.130;2024-02-14T03:56:55;100795.80;;;2.50
70533;BMP180;58088;51.186;17.130;2024-02-14T03:59:22;100799.20;;;2.50
70533;BMP180;58088;51.186;17.130;2024-02-14T04:01:53;100807.60;;;2.50
70533;BMP180;58088;51.186;17.130;2024-02-14T04:04:22;100803.40;;;2.50
70533;BMP180;58088;51.186;17.130;2024-02-14T04:06:55;100805.40;;;2.50
70533;BMP180;58088;51.186;17.130;2024-02-14T04:09:24;100806.40;;;2.48
70533;BMP180;58088;51.186;17.130;2024-02-14T04:11:56;100803.60;;;2.40
70533;BMP180;58088;51.186;17.130;2024-02-14T04:14:23;100805.20;;;2.40
70533;BMP180;58088;51.186;17.130;2024-02-14T04:16:49;100802.60;;;2.40
70533;BMP180;58088;51.186;17.130;2024-02-14T04:19:18;100801.00;;;2.40
70533;BMP180;58088;51.186;17.130;2024-02-14T04:21:45;100804.20;;;2.40
70533;BMP180;58088;51.186;17.130;2024-02-14T04:24:15;100805.80;;;2.40
70533;BMP180;58088;51.186;17.130;2024-02-14T04:26:42;100805.60;;;2.40
70533;BMP180;58088;51.186;17.130;2024-02-14T04:29:14;100798.80;;;2.32
70533;BMP180;58088;51.186;17.130;2024-02-14T04:31:41;100800.80;;;2.30
70533;BMP180;58088;51.186;17.130;2024-02-14T04:34:08;100800.00;;;2.30
70533;BMP180;58088;51.186;17.130;2024-02-14T04:36:36;100799.20;;;2.30
70533;BMP180;58088;51.186;17.130;2024-02-14T04:39:02;100799.40;;;2.30
70533;BMP180;58088;51.186;17.130;2024-02-14T04:41:29;100804.80;;;2.30
70533;BMP180;58088;51.186;17.130;2024-02-14T04:43:56;100806.20;;;2.30
70533;BMP180;58088;51.186;17.130;2024-02-14T04:46:23;100809.20;;;2.30
70533;BMP180;58088;51.186;17.130;2024-02-14T04:48:53;100805.80;;;2.30
70533;BMP180;58088;51.186;17.130;2024-02-14T04:51:20;100802.80;;;2.26
70533;BMP180;58088;51.186;17.130;2024-02-14T04:53:46;100803.60;;;2.26
70533;BMP180;58088;51.186;17.130;2024-02-14T04:58:48;100806.80;;;2.20
70533;BMP180;58088;51.186;17.130;2024-02-14T05:01:14;100797.00;;;2.20
70533;BMP180;58088;51.186;17.130;2024-02-14T05:03:41;100791.40;;;2.20
70533;BMP180;58088;51.186;17.130;2024-02-14T05:06:07;100796.00;;;2.20
70533;BMP180;58088;51.186;17.130;2024-02-14T05:08:33;100798.40;;;2.20
70533;BMP180;58088;51.186;17.130;2024-02-14T05:11:00;100793.00;;;2.20
70533;BMP180;58088;51.186;17.130;2024-02-14T05:13:26;100792.20;;;2.20
70533;BMP180;58088;51.186;17.130;2024-02-14T05:15:52;100788.80;;;2.20
70533;BMP180;58088;51.186;17.130;2024-02-14T05:18:18;100794.60;;;2.20
70533;BMP180;58088;51.186;17.130;2024-02-14T05:20:48;100796.80;;;2.20
70533;BMP180;58088;51.186;17.130;2024-02-14T05:23:15;100789.80;;;2.20
70533;BMP180;58088;51.186;17.130;2024-02-14T05:25:44;100792.40;;;2.20
70533;BMP180;58088;51.186;17.130;2024-02-14T05:28:11;100795.20;;;2.20
70533;BMP180;58088;51.186;17.130;2024-02-14T05:30:48;100796.60;;;2.20
70533;BMP180;58088;51.186;17.130;2024-02-14T05:33:18;100795.20;;;2.20
70533;BMP180;58088;51.186;17.130;2024-02-14T05:35:51;100797.00;;;2.20
70533;BMP180;58088;51.186;17.130;2024-02-14T05:38:18;100794.00;;;2.20
70533;BMP180;58088;51.186;17.130;2024-02-14T05:40:50;100790.00;;;2.30
70533;BMP180;58088;51.186;17.130;2024-02-14T05:43:20;100787.60;;;2.40
70533;BMP180;58088;51.186;17.130;2024-02-14T05:45:47;100784.80;;;2.36
70533;BMP180;58088;51.186;17.130;2024-02-14T05:48:20;100786.20;;;2.30
70533;BMP180;58088;51.186;17.130;2024-02-14T05:50:55;100789.60;;;2.30
70533;BMP180;58088;51.186;17.130;2024-02-14T05:53:21;100789.20;;;2.30
70533;BMP180;58088;51.186;17.130;2024-02-14T05:55:53;100794.20;;;2.30
70533;BMP180;58088;51.186;17.130;2024-02-14T05:58:23;100799.00;;;2.30
70533;BMP180;58088;51.186;17.130;2024-02-14T06:00:58;100805.40;;;2.30
70533;BMP180;58088;51.186;17.130;2024-02-14T06:03:40;100794.60;;;2.30
70533;BMP180;58088;51.186;17.130;2024-02-14T06:06:10;100799.60;;;2.30
70533;BMP180;58088;51.186;17.130;2024-02-14T06:08:40;100797.80;;;2.36
70533;BMP180;58088;51.186;17.130;2024-02-14T06:11:10;100802.00;;;2.40
70533;BMP180;58088;51.186;17.130;2024-02-14T06:13:38;100800.60;;;2.40
70533;BMP180;58088;51.186;17.130;2024-02-14T06:16:05;100797.80;;;2.40
70533;BMP180;58088;51.186;17.130;2024-02-14T06:18:31;100803.80;;;2.40
70533;BMP180;58088;51.186;17.130;2024-02-14T06:20:57;100799.80;;;2.40
70533;BMP180;58088;51.186;17.130;2024-02-14T06:23:23;100799.40;;;2.42
70533;BMP180;58088;51.186;17.130;2024-02-14T06:25:50;100802.20;;;2.50
70533;BMP180;58088;51.186;17.130;2024-02-14T06:28:16;100801.40;;;2.50
70533;BMP180;58088;51.186;17.130;2024-02-14T06:30:42;100799.20;;;2.50
70533;BMP180;58088;51.186;17.130;2024-02-14T06:33:08;100806.80;;;2.60
70533;BMP180;58088;51.186;17.130;2024-02-14T06:35:34;100802.60;;;2.70
70533;BMP180;58088;51.186;17.130;2024-02-14T06:38:00;100805.80;;;2.80
70533;BMP180;58088;51.186;17.130;2024-02-14T06:40:26;100806.20;;;2.90
70533;BMP180;58088;51.186;17.130;2024-02-14T06:42:55;100804.00;;;2.90
70533;BMP180;58088;51.186;17.130;2024-02-14T06:45:21;100807.40;;;2.98
70533;BMP180;58088;51.186;17.130;2024-02-14T06:47:47;100807.80;;;3.00
70533;BMP180;58088;51.186;17.130;2024-02-14T06:50:13;100807.00;;;3.10
70533;BMP180;58088;51.186;17.130;2024-02-14T06:52:39;100797.00;;;3.20
70533;BMP180;58088;51.186;17.130;2024-02-14T06:55:06;100802.40;;;3.30
70533;BMP180;58088;51.186;17.130;2024-02-14T06:57:33;100808.80;;;3.42
70533;BMP180;58088;51.186;17.130;2024-02-14T06:59:59;100808.40;;;3.60
70533;BMP180;58088;51.186;17.130;2024-02-14T07:02:25;100808.40;;;3.70
70533;BMP180;58088;51.186;17.130;2024-02-14T07:04:54;100801.80;;;3.80
70533;BMP180;58088;51.186;17.130;2024-02-14T07:07:20;100805.40;;;3.90
70533;BMP180;58088;51.186;17.130;2024-02-14T07:09:46;100807.60;;;4.02
70533;BMP180;58088;51.186;17.130;2024-02-14T07:12:13;100810.20;;;4.20
70533;BMP180;58088;51.186;17.130;2024-02-14T07:14:42;100811.20;;;4.40
70533;BMP180;58088;51.186;17.130;2024-02-14T07:17:09;100814.00;;;4.60
70533;BMP180;58088;51.186;17.130;2024-02-14T07:19:43;100815.20;;;4.74
70533;BMP180;58088;51.186;17.130;2024-02-14T07:22:13;100809.00;;;4.90
70533;BMP180;58088;51.186;17.130;2024-02-14T07:24:42;100808.40;;;5.08
70533;BMP180;58088;51.186;17.130;2024-02-14T07:27:08;100806.00;;;5.20
70533;BMP180;58088;51.186;17.130;2024-02-14T07:29:34;100816.80;;;5.30
70533;BMP180;58088;51.186;17.130;2024-02-14T07:32:02;100821.80;;;5.40
70533;BMP180;58088;51.186;17.130;2024-02-14T07:34:28;100817.20;;;5.54
70533;BMP180;58088;51.186;17.130;2024-02-14T07:36:55;100811.60;;;5.66
70533;BMP180;58088;51.186;17.130;2024-02-14T07:39:21;100811.80;;;5.70
70533;BMP180;58088;51.186;17.130;2024-02-14T07:41:47;100807.80;;;5.80
70533;BMP180;58088;51.186;17.130;2024-02-14T07:44:13;100800.20;;;5.94
70533;BMP180;58088;51.186;17.130;2024-02-14T07:46:40;100792.80;;;6.10
70533;BMP180;58088;51.186;17.130;2024-02-14T07:49:06;100792.60;;;6.20
70533;BMP180;58088;51.186;17.130;2024-02-14T07:51:32;100786.40;;;6.20
70533;BMP180;58088;51.186;17.130;2024-02-14T07:54:07;100783.20;;;6.30
70533;BMP180;58088;51.186;17.130;2024-02-14T07:56:34;100789.40;;;6.40
70533;BMP180;58088;51.186;17.130;2024-02-14T07:59:00;100784.00;;;6.50
70533;BMP180;58088;51.186;17.130;2024-02-14T08:01:26;100792.00;;;6.60
70533;BMP180;58088;51.186;17.130;2024-02-14T08:03:53;100787.80;;;6.60
70533;BMP180;58088;51.186;17.130;2024-02-14T08:06:20;100786.00;;;6.70
70533;BMP180;58088;51.186;17.130;2024-02-14T08:08:47;100778.80;;;6.88
70533;BMP180;58088;51.186;17.130;2024-02-14T08:11:17;100779.00;;;6.86
70533;BMP180;58088;51.186;17.130;2024-02-14T08:13:43;100779.20;;;6.78
70533;BMP180;58088;51.186;17.130;2024-02-14T08:16:10;100778.40;;;6.80
70533;BMP180;58088;51.186;17.130;2024-02-14T08:18:38;100784.80;;;7.00
70533;BMP180;58088;51.186;17.130;2024-02-14T08:21:06;100790.40;;;7.20
70533;BMP180;58088;51.186;17.130;2024-02-14T08:23:32;100789.20;;;7.34
70533;BMP180;58088;51.186;17.130;2024-02-14T08:26:01;100786.20;;;7.50
70533;BMP180;58088;51.186;17.130;2024-02-14T08:28:28;100789.00;;;7.68
70533;BMP180;58088;51.186;17.130;2024-02-14T08:30:54;100782.00;;;7.80
70533;BMP180;58088;51.186;17.130;2024-02-14T08:33:20;100788.20;;;7.90
70533;BMP180;58088;51.186;17.130;2024-02-14T08:35:50;100796.60;;;7.90
70533;BMP180;58088;51.186;17.130;2024-02-14T08:38:17;100795.00;;;8.00
70533;BMP180;58088;51.186;17.130;2024-02-14T08:40:45;100796.80;;;8.16
70533;BMP180;58088;51.186;17.130;2024-02-14T08:43:14;100799.60;;;8.30
70533;BMP180;58088;51.186;17.130;2024-02-14T08:45:40;100796.80;;;8.40
70533;BMP180;58088;51.186;17.130;2024-02-14T08:48:07;100796.00;;;8.50
70533;BMP180;58088;51.186;17.130;2024-02-14T08:50:33;100795.80;;;8.54
70533;BMP180;58088;51.186;17.130;2024-02-14T08:53:00;100794.80;;;8.60
70533;BMP180;58088;51.186;17.130;2024-02-14T08:55:26;100794.20;;;8.70
70533;BMP180;58088;51.186;17.130;2024-02-14T08:57:52;100789.00;;;8.80
70533;BMP180;58088;51.186;17.130;2024-02-14T09:00:19;100790.20;;;8.90
70533;BMP180;58088;51.186;17.130;2024-02-14T09:02:46;100795.20;;;9.00
70533;BMP180;58088;51.186;17.130;2024-02-14T09:05:16;100793.00;;;9.20
70533;BMP180;58088;51.186;17.130;2024-02-14T09:07:43;100792.00;;;9.30
70533;BMP180;58088;51.186;17.130;2024-02-14T09:10:10;100792.20;;;9.40
70533;BMP180;58088;51.186;17.130;2024-02-14T09:12:39;100792.00;;;9.50
70533;BMP180;58088;51.186;17.130;2024-02-14T09:15:08;100789.80;;;9.62
70533;BMP180;58088;51.186;17.130;2024-02-14T09:17:34;100788.40;;;9.74
70533;BMP180;58088;51.186;17.130;2024-02-14T09:20:01;100788.00;;;9.90
70533;BMP180;58088;51.186;17.130;2024-02-14T09:22:27;100788.80;;;10.00
70533;BMP180;58088;51.186;17.130;2024-02-14T09:24:54;100787.00;;;10.20
70533;BMP180;58088;51.186;17.130;2024-02-14T09:27:22;100786.80;;;10.30
70533;BMP180;58088;51.186;17.130;2024-02-14T09:29:48;100787.60;;;10.40
70533;BMP180;58088;51.186;17.130;2024-02-14T09:32:15;100784.20;;;10.40
70533;BMP180;58088;51.186;17.130;2024-02-14T09:34:41;100781.20;;;10.40
70533;BMP180;58088;51.186;17.130;2024-02-14T09:37:07;100782.40;;;10.50
70533;BMP180;58088;51.186;17.130;2024-02-14T09:39:35;100786.20;;;10.50
70533;BMP180;58088;51.186;17.130;2024-02-14T09:42:09;100776.80;;;10.58
70533;BMP180;58088;51.186;17.130;2024-02-14T09:44:37;100781.40;;;10.60
70533;BMP180;58088;51.186;17.130;2024-02-14T09:47:06;100784.60;;;10.70
70533;BMP180;58088;51.186;17.130;2024-02-14T09:49:35;100781.20;;;10.70
70533;BMP180;58088;51.186;17.130;2024-02-14T09:52:07;100772.40;;;10.70
70533;BMP180;58088;51.186;17.130;2024-02-14T09:54:36;100781.60;;;10.80
70533;BMP180;58088;51.186;17.130;2024-02-14T09:57:06;100777.80;;;10.80
70533;BMP180;58088;51.186;17.130;2024-02-14T09:59:39;100782.20;;;10.72
70533;BMP180;58088;51.186;17.130;2024-02-14T10:02:12;100779.40;;;10.70
70533;BMP180;58088;51.186;17.130;2024-02-14T10:04:38;100777.40;;;10.70
70533;BMP180;58088;51.186;17.130;2024-02-14T10:07:06;100774.80;;;10.80
70533;BMP180;58088;51.186;17.130;2024-02-14T10:09:41;100770.80;;;10.84
70533;BMP180;58088;51.186;17.130;2024-02-14T10:12:10;100770.60;;;11.00
70533;BMP180;58088;51.186;17.130;2024-02-14T10:14:37;100767.00;;;11.10
70533;BMP180;58088;51.186;17.130;2024-02-14T10:17:07;100766.40;;;11.10
70533;BMP180;58088;51.186;17.130;2024-02-14T10:19:36;100761.40;;;11.08
70533;BMP180;58088;51.186;17.130;2024-02-14T10:22:02;100759.00;;;11.18
70533;BMP180;58088;51.186;17.130;2024-02-14T10:24:31;100751.60;;;11.30
70533;BMP180;58088;51.186;17.130;2024-02-14T10:27:00;100742.60;;;11.40
70533;BMP180;58088;51.186;17.130;2024-02-14T10:29:27;100741.40;;;11.40
70533;BMP180;58088;51.186;17.130;2024-02-14T10:31:54;100738.40;;;11.40
70533;BMP180;58088;51.186;17.130;2024-02-14T10:34:25;100727.40;;;11.40
70533;BMP180;58088;51.186;17.130;2024-02-14T10:36:56;100731.80;;;11.50
70533;BMP180;58088;51.186;17.130;2024-02-14T10:39:26;100726.60;;;11.52
70533;BMP180;58088;51.186;17.130;2024-02-14T10:41:53;100725.80;;;11.60
70533;BMP180;58088;51.186;17.130;2024-02-14T10:44:20;100730.20;;;11.60
70533;BMP180;58088;51.186;17.130;2024-02-14T10:46:48;100721.80;;;11.70
70533;BMP180;58088;51.186;17.130;2024-02-14T10:49:19;100717.60;;;11.80
70533;BMP180;58088;51.186;17.130;2024-02-14T10:51:48;100712.80;;;11.76
70533;BMP180;58088;51.186;17.130;2024-02-14T10:54:16;100710.40;;;11.80
70533;BMP180;58088;51.186;17.130;2024-02-14T10:56:49;100713.00;;;11.80
70533;BMP180;58088;51.186;17.130;2024-02-14T10:59:23;100700.40;;;11.86
70533;BMP180;58088;51.186;17.130;2024-02-14T11:01:51;100697.00;;;11.90
70533;BMP180;58088;51.186;17.130;2024-02-14T11:04:18;100699.20;;;12.00
70533;BMP180;58088;51.186;17.130;2024-02-14T11:06:51;100698.80;;;12.00
70533;BMP180;58088;51.186;17.130;2024-02-14T11:09:31;100695.80;;;12.10
70533;BMP180;58088;51.186;17.130;2024-02-14T11:12:01;100692.60;;;12.12
70533;BMP180;58088;51.186;17.130;2024-02-14T11:14:35;100688.80;;;12.20
70533;BMP180;58088;51.186;17.130;2024-02-14T11:17:08;100684.40;;;12.24
70533;BMP180;58088;51.186;17.130;2024-02-14T11:19:35;100678.80;;;12.30
70533;BMP180;58088;51.186;17.130;2024-02-14T11:22:12;100676.60;;;12.30
70533;BMP180;58088;51.186;17.130;2024-02-14T11:24:41;100671.00;;;12.36
70533;BMP180;58088;51.186;17.130;2024-02-14T11:27:11;100668.20;;;12.40
70533;BMP180;58088;51.186;17.130;2024-02-14T11:29:51;100664.80;;;12.40
70533;BMP180;58088;51.186;17.130;2024-02-14T11:32:18;100663.60;;;12.50
70533;BMP180;58088;51.186;17.130;2024-02-14T11:34:55;100668.20;;;12.60
70533;BMP180;58088;51.186;17.130;2024-02-14T11:37:30;100662.60;;;12.60
70533;BMP180;58088;51.186;17.130;2024-02-14T11:40:01;100666.20;;;12.70
70533;BMP180;58088;51.186;17.130;2024-02-14T11:42:31;100663.60;;;12.80
70533;BMP180;58088;51.186;17.130;2024-02-14T11:44:58;100659.60;;;12.80
70533;BMP180;58088;51.186;17.130;2024-02-14T11:47:25;100653.40;;;12.88
70533;BMP180;58088;51.186;17.130;2024-02-14T11:49:55;100651.80;;;12.82
70533;BMP180;58088;51.186;17.130;2024-02-14T11:52:22;100653.80;;;12.90
70533;BMP180;58088;51.186;17.130;2024-02-14T11:54:48;100647.20;;;12.90
70533;BMP180;58088;51.186;17.130;2024-02-14T11:57:18;100652.00;;;13.00
70533;BMP180;58088;51.186;17.130;2024-02-14T11:59:49;100648.60;;;12.90
70533;BMP180;58088;51.186;17.130;2024-02-14T12:02:19;100647.20;;;13.00
70533;BMP180;58088;51.186;17.130;2024-02-14T12:04:48;100650.40;;;13.10
70533;BMP180;58088;51.186;17.130;2024-02-14T12:07:16;100643.60;;;13.20
70533;BMP180;58088;51.186;17.130;2024-02-14T12:09:43;100648.60;;;13.20
70533;BMP180;58088;51.186;17.130;2024-02-14T12:12:09;100639.00;;;13.20
70533;BMP180;58088;51.186;17.130;2024-02-14T12:14:36;100640.60;;;13.20
70533;BMP180;58088;51.186;17.130;2024-02-14T12:17:05;100634.60;;;13.20
70533;BMP180;58088;51.186;17.130;2024-02-14T12:19:32;100636.00;;;13.30
70533;BMP180;58088;51.186;17.130;2024-02-14T12:22:00;100632.60;;;13.30
70533;BMP180;58088;51.186;17.130;2024-02-14T12:24:28;100634.20;;;13.30
70533;BMP180;58088;51.186;17.130;2024-02-14T12:26:57;100631.80;;;13.38
70533;BMP180;58088;51.186;17.130;2024-02-14T12:29:24;100631.20;;;13.40
70533;BMP180;58088;51.186;17.130;2024-02-14T12:31:51;100624.20;;;13.40
70533;BMP180;58088;51.186;17.130;2024-02-14T12:34:17;100625.00;;;13.40
70533;BMP180;58088;51.186;17.130;2024-02-14T12:36:45;100620.60;;;13.30
70533;BMP180;58088;51.186;17.130;2024-02-14T12:39:12;100622.80;;;13.20
70533;BMP180;58088;51.186;17.130;2024-02-14T12:41:38;100621.40;;;13.20
70533;BMP180;58088;51.186;17.130;2024-02-14T12:44:06;100619.80;;;13.20
70533;BMP180;58088;51.186;17.130;2024-02-14T12:46:33;100612.00;;;13.14
70533;BMP180;58088;51.186;17.130;2024-02-14T12:48:59;100609.40;;;13.12
70533;BMP180;58088;51.186;17.130;2024-02-14T12:51:26;100606.20;;;13.20
70533;BMP180;58088;51.186;17.130;2024-02-14T12:53:54;100598.00;;;13.30
70533;BMP180;58088;51.186;17.130;2024-02-14T12:56:21;100601.20;;;13.30
70533;BMP180;58088;51.186;17.130;2024-02-14T12:58:52;100605.00;;;13.30
70533;BMP180;58088;51.186;17.130;2024-02-14T13:01:19;100600.00;;;13.30
70533;BMP180;58088;51.186;17.130;2024-02-14T13:03:45;100596.40;;;13.30
70533;BMP180;58088;51.186;17.130;2024-02-14T13:06:12;100604.00;;;13.30
70533;BMP180;58088;51.186;17.130;2024-02-14T13:08:39;100597.40;;;13.30
70533;BMP180;58088;51.186;17.130;2024-02-14T13:11:06;100598.60;;;13.30
70533;BMP180;58088;51.186;17.130;2024-02-14T13:13:35;100594.00;;;13.30
70533;BMP180;58088;51.186;17.130;2024-02-14T13:16:02;100603.00;;;13.30
70533;BMP180;58088;51.186;17.130;2024-02-14T13:18:28;100590.40;;;13.40
70533;BMP180;58088;51.186;17.130;2024-02-14T13:20:54;100588.40;;;13.38
70533;BMP180;58088;51.186;17.130;2024-02-14T13:23:26;100587.60;;;13.40
70533;BMP180;58088;51.186;17.130;2024-02-14T13:25:52;100591.20;;;13.40
70533;BMP180;58088;51.186;17.130;2024-02-14T13:28:18;100585.60;;;13.48
70533;BMP180;58088;51.186;17.130;2024-02-14T13:30:45;100582.80;;;13.40
70533;BMP180;58088;51.186;17.130;2024-02-14T13:33:15;100579.40;;;13.40
70533;BMP180;58088;51.186;17.130;2024-02-14T13:35:41;100581.20;;;13.40
70533;BMP180;58088;51.186;17.130;2024-02-14T13:38:08;100575.60;;;13.44
70533;BMP180;58088;51.186;17.130;2024-02-14T13:40:35;100575.60;;;13.50
70533;BMP180;58088;51.186;17.130;2024-02-14T13:43:01;100568.00;;;13.50
70533;BMP180;58088;51.186;17.130;2024-02-14T13:45:41;100560.80;;;13.56
70533;BMP180;58088;51.186;17.130;2024-02-14T13:48:11;100566.20;;;13.60
70533;BMP180;58088;51.186;17.130;2024-02-14T13:50:37;100563.40;;;13.60
70533;BMP180;58088;51.186;17.130;2024-02-14T13:53:07;100564.40;;;13.60
70533;BMP180;58088;51.186;17.130;2024-02-14T13:55:33;100563.20;;;13.60
70533;BMP180;58088;51.186;17.130;2024-02-14T13:57:59;100565.40;;;13.70
70533;BMP180;58088;51.186;17.130;2024-02-14T14:00:27;100564.60;;;13.70